Time;durP1;ratioP1;P1;durP2;ratioP2;P2;SDS_P1;SDS_P2;PMS_P1;PMS_P2;Temp;Humidity;BMP_temperature;BMP_pressure;BME280_temperature;BME280_humidity;BME280_pressure;Samples;Min_cycle;Max_cycle;Signal;HPM_P1;HPM_P2
2023/02/14 00:02:14;;;;;;;19.75;8.45;;;4.20;99.90;;;;;;4986475;28;20041;-71
2023/02/14 00:04:42;;;;;;;19.98;8.48;;;4.20;99.90;;;;;;4975763;28;20034;-71
2023/02/14 00:07:09;;;;;;;16.05;7.20;;;4.20;99.90;;;;;;4996657;28;20046;-71
2023/02/14 00:09:35;;;;;;;19.80;7.78;;;4.20;99.90;;;;;;4999288;28;20061;-71
2023/02/14 00:12:00;;;;;;;23.17;8.50;;;4.20;99.90;;;;;;4995340;28;20119;-70
2023/02/14 00:17:10;;;;;;;18.50;7.90;;;4.10;99.90;;;;;;4984822;28;20100;-71
2023/02/14 00:19:36;;;;;;;19.33;7.35;;;4.10;99.90;;;;;;4979423;28;20129;-71
2023/02/14 00:22:02;;;;;;;20.25;9.00;;;4.10;99.90;;;;;;4992370;28;20038;-71
2023/02/14 00:24:28;;;;;;;26.90;10.13;;;4.10;99.90;;;;;;4992829;28;20038;-71
2023/02/14 00:26:54;;;;;;;24.50;9.82;;;4.20;99.90;;;;;;4993400;28;20116;-72
2023/02/14 00:29:23;;;;;;;24.52;9.45;;;4.20;99.90;;;;;;5000858;28;20033;-71
2023/02/14 00:31:49;;;;;;;20.02;8.77;;;4.30;99.90;;;;;;4983582;28;20034;-71
2023/02/14 00:34:16;;;;;;;23.05;8.85;;;4.30;99.90;;;;;;4994875;28;20648;-71
2023/02/14 00:36:42;;;;;;;17.63;8.18;;;4.30;99.90;;;;;;4998161;28;20506;-71
2023/02/14 00:39:11;;;;;;;20.73;9.05;;;4.30;99.90;;;;;;4986070;28;20043;-71
2023/02/14 00:41:37;;;;;;;19.42;8.68;;;4.30;99.90;;;;;;4997933;28;20035;-71
2023/02/14 00:44:04;;;;;;;21.98;9.98;;;4.30;99.90;;;;;;5003019;28;20461;-71
2023/02/14 00:46:29;;;;;;;20.30;9.18;;;4.30;99.90;;;;;;4999413;28;20080;-71
2023/02/14 00:48:55;;;;;;;20.40;9.60;;;4.20;99.90;;;;;;4995177;28;20034;-71
2023/02/14 00:51:21;;;;;;;23.42;9.63;;;4.20;99.90;;;;;;4989093;28;20034;-71
2023/02/14 00:53:48;;;;;;;20.85;8.95;;;4.10;99.90;;;;;;4973864;28;20117;-70
2023/02/14 00:56:14;;;;;;;22.58;9.15;;;4.10;99.90;;;;;;4990051;28;20129;-71
2023/02/14 00:58:40;;;;;;;22.05;9.13;;;4.00;99.90;;;;;;4989607;28;20486;-71
2023/02/14 01:01:06;;;;;;;19.58;8.50;;;4.00;99.90;;;;;;4978698;28;20034;-71
2023/02/14 01:03:32;;;;;;;18.90;8.82;;;3.90;99.90;;;;;;4987111;28;20487;-71
2023/02/14 01:05:58;;;;;;;20.52;9.05;;;3.90;99.90;;;;;;4988905;28;20055;-71
2023/02/14 01:08:24;;;;;;;18.58;8.88;;;3.90;99.90;;;;;;4990331;28;20110;-71
2023/02/14 01:10:50;;;;;;;24.95;9.90;;;3.90;99.90;;;;;;4992334;28;20064;-70
2023/02/14 01:13:16;;;;;;;18.23;8.15;;;3.80;99.90;;;;;;4997350;28;20026;-70
2023/02/14 01:15:45;;;;;;;20.02;9.00;;;3.80;99.90;;;;;;4989693;28;20684;-72
2023/02/14 01:18:11;;;;;;;21.23;9.30;;;3.80;99.90;;;;;;5004510;28;20033;-72
2023/02/14 01:20:36;;;;;;;20.30;9.23;;;3.80;99.90;;;;;;4972750;28;20018;-72
2023/02/14 01:23:09;;;;;;;21.65;8.77;;;3.80;99.90;;;;;;4996518;28;20038;-72
2023/02/14 01:25:38;;;;;;;19.80;9.35;;;3.80;99.90;;;;;;5005572;28;20041;-72
2023/02/14 01:28:05;;;;;;;13.68;7.03;;;3.80;99.90;;;;;;4986609;28;20045;-72
2023/02/14 01:30:31;;;;;;;22.52;8.95;;;3.70;99.90;;;;;;4980447;28;20538;-72
2023/02/14 01:32:57;;;;;;;20.13;9.45;;;3.70;99.90;;;;;;4988535;28;20038;-72
2023/02/14 01:35:22;;;;;;;24.55;9.85;;;3.70;99.90;;;;;;4997426;28;20031;-71
2023/02/14 01:37:48;;;;;;;20.90;9.65;;;3.70;99.90;;;;;;4997194;28;20511;-72
2023/02/14 01:40:14;;;;;;;20.77;9.20;;;3.70;99.90;;;;;;4999671;28;20027;-71
2023/02/14 01:42:40;;;;;;;22.38;8.18;;;3.70;99.90;;;;;;5001980;28;20442;-72
2023/02/14 01:45:27;;;;;;;26.63;10.25;;;3.70;99.90;;;;;;4997279;28;20033;-72
2023/02/14 01:47:54;;;;;;;22.40;10.15;;;3.60;99.90;;;;;;4996566;28;20064;-72
2023/02/14 01:50:24;;;;;;;32.15;12.45;;;3.60;99.90;;;;;;4997175;28;20117;-72
2023/02/14 01:53:03;;;;;;;28.27;11.70;;;3.70;99.90;;;;;;4989906;28;20041;-72
2023/02/14 01:55:37;;;;;;;26.25;12.15;;;3.80;99.90;;;;;;4997292;28;20510;-71
2023/02/14 01:58:10;;;;;;;30.13;12.52;;;3.90;99.90;;;;;;5000728;28;20097;-71
2023/02/14 02:03:26;;;;;;;24.67;12.40;;;4.00;99.90;;;;;;4997321;28;20096;-71
2023/02/14 02:05:57;;;;;;;24.52;10.60;;;4.00;99.90;;;;;;4973947;28;20113;-71
2023/02/14 02:08:23;;;;;;;25.85;11.82;;;4.00;99.90;;;;;;5008986;28;20033;-71
2023/02/14 02:10:48;;;;;;;25.63;11.00;;;4.00;99.90;;;;;;4996743;28;20558;-70
2023/02/14 02:13:17;;;;;;;21.85;9.43;;;4.10;99.90;;;;;;4976312;28;20042;-71
2023/02/14 02:16:16;;;;;;;22.08;10.30;;;4.00;99.90;;;;;;4996643;28;20085;-71
2023/02/14 02:19:26;;;;;;;21.75;9.57;;;4.00;99.90;;;;;;4989502;28;20030;-70
2023/02/14 02:22:03;;;;;;;23.60;9.87;;;3.90;99.90;;;;;;4972062;28;20581;-71
2023/02/14 02:24:31;;;;;;;22.05;10.05;;;3.90;99.90;;;;;;4988232;28;20038;-71
2023/02/14 02:27:15;;;;;;;24.75;9.45;;;3.80;99.90;;;;;;4989386;28;20038;-71
2023/02/14 02:30:16;;;;;;;21.27;9.70;;;3.80;99.90;;;;;;5004623;28;20113;-71
2023/02/14 02:33:11;;;;;;;26.05;10.45;;;3.70;99.90;;;;;;4997203;28;20030;-71
2023/02/14 02:36:04;;;;;;;23.10;11.30;;;3.80;99.90;;;;;;4994563;28;20105;-71
2023/02/14 02:39:04;;;;;;;27.80;11.13;;;3.80;99.90;;;;;;4988386;28;20034;-71
2023/02/14 02:41:36;;;;;;;26.98;10.82;;;3.80;99.90;;;;;;4957934;28;20031;-71
2023/02/14 02:44:07;;;;;;;28.05;11.93;;;3.80;99.90;;;;;;4990860;28;20031;-71
2023/02/14 02:46:48;;;;;;;24.30;10.05;;;3.90;99.90;;;;;;4993580;28;20620;-71
2023/02/14 02:55:22;;;;;;;22.60;10.60;;;3.90;99.90;;;;;;4993136;28;20040;-70
2023/02/14 02:57:50;;;;;;;24.50;10.15;;;3.90;99.90;;;;;;5001933;28;20034;-71
2023/02/14 03:00:17;;;;;;;24.08;10.65;;;3.90;99.90;;;;;;4995986;28;20046;-71
2023/02/14 03:05:34;;;;;;;20.50;9.75;;;3.80;99.90;;;;;;4993591;28;20097;-71
2023/02/14 03:07:59;;;;;;;22.98;9.40;;;3.80;99.90;;;;;;4988315;28;20048;-71
2023/02/14 03:10:30;;;;;;;20.40;9.93;;;3.70;99.90;;;;;;4992430;28;20125;-71
2023/02/14 03:13:17;;;;;;;24.48;9.57;;;3.70;99.90;;;;;;4991089;28;20038;-71
2023/02/14 03:15:45;;;;;;;21.65;10.60;;;3.70;99.90;;;;;;4999085;28;20034;-71
2023/02/14 03:21:47;;;;;;;24.73;10.98;;;3.70;99.90;;;;;;4957648;28;20045;-71
2023/02/14 03:24:26;;;;;;;20.42;9.85;;;3.70;99.90;;;;;;4989399;28;20080;-71
2023/02/14 03:27:15;;;;;;;13.67;6.90;;;3.70;99.90;;;;;;4978858;28;20049;-70
2023/02/14 03:30:04;;;;;;;22.73;9.80;;;3.60;99.90;;;;;;5010351;28;20264;-72
2023/02/14 03:32:37;;;;;;;23.33;8.95;;;3.60;99.90;;;;;;4990413;28;20034;-70
2023/02/14 03:35:31;;;;;;;23.20;10.07;;;3.50;99.90;;;;;;5000739;28;20048;-71
2023/02/14 03:38:14;;;;;;;27.50;10.52;;;3.50;99.90;;;;;;5002127;28;20102;-71
2023/02/14 03:40:48;;;;;;;19.65;9.35;;;3.50;99.90;;;;;;4983373;28;20031;-71
2023/02/14 03:43:29;;;;;;;31.48;10.05;;;3.60;99.90;;;;;;4997736;28;20030;-71
2023/02/14 03:46:04;;;;;;;;;;;3.60;99.90;;;;;;4999320;28;20026;-74
2023/02/14 03:48:32;;;;;;;22.60;9.60;;;3.60;99.90;;;;;;4998523;28;19921;-71
2023/02/14 03:50:58;;;;;;;20.67;9.40;;;3.60;99.90;;;;;;4996605;28;20494;-71
2023/02/14 03:53:28;;;;;;;19.58;10.50;;;3.60;99.90;;;;;;5000033;28;20042;-70
2023/02/14 03:56:14;;;;;;;26.35;9.80;;;3.60;99.90;;;;;;4997050;28;20516;-71
2023/02/14 03:58:48;;;;;;;21.58;10.02;;;3.60;99.90;;;;;;4995551;28;20517;-70
2023/02/14 04:01:23;;;;;;;25.50;11.27;;;3.60;99.90;;;;;;5010436;28;20026;-70
2023/02/14 04:03:51;;;;;;;23.35;9.55;;;3.70;99.90;;;;;;4991961;28;20036;-71
2023/02/14 04:06:18;;;;;;;20.23;10.15;;;3.70;99.90;;;;;;5002322;28;20025;-71
2023/02/14 04:08:44;;;;;;;24.08;10.32;;;3.70;99.90;;;;;;4992215;28;20491;-71
2023/02/14 04:11:10;;;;;;;26.40;11.27;;;3.80;99.90;;;;;;5004240;28;20042;-71
2023/02/14 04:13:36;;;;;;;22.60;10.00;;;3.80;99.90;;;;;;4979874;28;20034;-70
2023/02/14 04:16:02;;;;;;;25.35;10.73;;;3.90;99.90;;;;;;5007533;28;20118;-72
2023/02/14 04:21:12;;;;;;;23.15;10.82;;;4.00;99.90;;;;;;5003781;28;20085;-71
2023/02/14 04:23:38;;;;;;;23.02;9.70;;;4.10;99.90;;;;;;4999481;28;20042;-72
2023/02/14 04:26:04;;;;;;;23.08;8.90;;;4.10;99.90;;;;;;4991299;28;20035;-71
2023/02/14 04:28:30;;;;;;;20.58;10.07;;;4.10;99.90;;;;;;4997084;28;20048;-70
2023/02/14 04:30:55;;;;;;;21.30;9.70;;;4.20;99.90;;;;;;5004930;28;20044;-70
2023/02/14 04:33:21;;;;;;;28.42;10.05;;;4.10;99.90;;;;;;4989698;28;20116;-70
2023/02/14 04:35:47;;;;;;;21.48;9.65;;;4.10;99.90;;;;;;4987526;28;20097;-70
2023/02/14 04:38:13;;;;;;;21.92;9.10;;;4.00;99.90;;;;;;4988630;28;20030;-71
2023/02/14 04:40:39;;;;;;;25.95;10.10;;;4.00;99.90;;;;;;4989606;28;20203;-72
2023/02/14 04:43:06;;;;;;;23.65;9.40;;;4.00;99.90;;;;;;4991719;28;20026;-71
2023/02/14 04:45:32;;;;;;;21.02;8.65;;;4.00;99.90;;;;;;4995580;28;20046;-70
2023/02/14 04:47:57;;;;;;;22.23;10.00;;;3.90;99.90;;;;;;5003278;28;20060;-72
2023/02/14 04:50:24;;;;;;;20.08;9.35;;;3.90;99.90;;;;;;4997197;28;20539;-70
2023/02/14 04:52:51;;;;;;;20.67;8.93;;;3.90;99.90;;;;;;4990741;28;20034;-70
2023/02/14 04:55:16;;;;;;;36.08;9.70;;;3.90;99.90;;;;;;4972755;28;20113;-70
2023/02/14 04:57:42;;;;;;;21.58;9.38;;;3.90;99.90;;;;;;4989186;28;20471;-71
2023/02/14 05:00:08;;;;;;;21.02;9.07;;;3.80;99.90;;;;;;4973310;28;20096;-70
2023/02/14 05:02:34;;;;;;;20.55;8.98;;;3.80;99.90;;;;;;4991670;28;20042;-71
2023/02/14 05:04:59;;;;;;;19.70;8.80;;;3.80;99.90;;;;;;4987477;28;20103;-70
2023/02/14 05:07:25;;;;;;;20.55;9.80;;;3.70;99.90;;;;;;4973996;28;20038;-69
2023/02/14 05:09:50;;;;;;;21.98;9.32;;;3.80;99.90;;;;;;4993300;28;20038;-71
2023/02/14 05:12:16;;;;;;;20.40;9.88;;;3.80;99.90;;;;;;4994103;28;20034;-71
2023/02/14 05:14:42;;;;;;;25.90;10.32;;;3.80;99.90;;;;;;4987756;28;20058;-69
2023/02/14 05:17:07;;;;;;;22.08;8.98;;;3.80;99.90;;;;;;4990476;28;20422;-72
2023/02/14 05:19:33;;;;;;;24.50;9.32;;;3.80;99.90;;;;;;4996555;28;20037;-72
2023/02/14 05:21:59;;;;;;;25.27;10.07;;;3.80;99.90;;;;;;4989951;28;20045;-71
2023/02/14 05:24:24;;;;;;;23.88;9.68;;;3.70;99.90;;;;;;4970494;28;20030;-70
2023/02/14 05:26:50;;;;;;;22.10;9.38;;;3.70;99.90;;;;;;4999161;28;20040;-70
2023/02/14 05:29:15;;;;;;;31.27;9.82;;;3.80;99.90;;;;;;4997288;28;20461;-70
2023/02/14 05:31:41;;;;;;;28.70;10.63;;;3.80;99.90;;;;;;4990213;28;20038;-70
2023/02/14 05:34:07;;;;;;;23.30;8.52;;;3.80;99.90;;;;;;4992615;28;20184;-72
2023/02/14 05:36:32;;;;;;;29.75;8.73;;;3.80;99.90;;;;;;4985460;28;20407;-69
2023/02/14 05:38:58;;;;;;;30.70;8.68;;;3.80;99.90;;;;;;4988922;28;20398;-70
2023/02/14 05:41:23;;;;;;;31.13;8.70;;;3.70;99.90;;;;;;4991202;28;20034;-70
2023/02/14 05:43:49;;;;;;;30.60;9.05;;;3.70;99.90;;;;;;4988159;28;20104;-70
2023/02/14 05:46:15;;;;;;;25.20;9.93;;;3.70;99.90;;;;;;4989831;28;20048;-70
2023/02/14 05:48:46;;;;;;;28.27;10.35;;;3.60;99.90;;;;;;4988356;28;20069;-69
2023/02/14 05:51:12;;;;;;;29.40;9.82;;;3.60;99.90;;;;;;4962381;28;20136;-70
2023/02/14 05:53:38;;;;;;;28.58;8.90;;;3.60;99.90;;;;;;4988436;28;20495;-71
2023/02/14 05:56:04;;;;;;;26.10;9.35;;;3.60;99.90;;;;;;4977194;28;20038;-70
2023/02/14 05:58:30;;;;;;;24.67;9.57;;;3.60;99.90;;;;;;4997284;28;20030;-70
2023/02/14 06:00:57;;;;;;;24.92;9.80;;;3.50;99.90;;;;;;4989875;28;20034;-76
2023/02/14 06:03:23;;;;;;;25.25;10.65;;;3.50;99.90;;;;;;4991980;28;20042;-71
2023/02/14 06:05:48;;;;;;;25.08;8.98;;;3.40;99.90;;;;;;4986495;28;20113;-73
2023/02/14 06:08:14;;;;;;;21.90;8.98;;;3.40;99.90;;;;;;4987698;28;20042;-71
2023/02/14 06:10:39;;;;;;;20.02;8.98;;;3.40;99.90;;;;;;4988429;28;20129;-71
2023/02/14 06:13:07;;;;;;;17.80;8.35;;;3.40;99.90;;;;;;4985720;28;20041;-71
2023/02/14 06:15:34;;;;;;;22.92;9.63;;;3.40;99.90;;;;;;4986263;28;20153;-70
2023/02/14 06:18:01;;;;;;;23.55;8.07;;;3.40;99.90;;;;;;4985444;28;20077;-71
2023/02/14 06:20:27;;;;;;;21.25;9.07;;;3.30;99.90;;;;;;4984914;28;20109;-70
2023/02/14 06:22:53;;;;;;;20.83;9.52;;;3.20;99.90;;;;;;4986744;28;20026;-70
2023/02/14 06:25:20;;;;;;;22.40;8.65;;;3.20;99.90;;;;;;4985067;28;20925;-71
2023/02/14 06:27:46;;;;;;;20.27;9.15;;;3.20;99.90;;;;;;4986939;28;20069;-72
2023/02/14 06:30:12;;;;;;;22.88;9.05;;;3.10;99.90;;;;;;4973688;28;20454;-71
2023/02/14 06:32:38;;;;;;;18.85;8.75;;;3.10;99.90;;;;;;4971672;28;20035;-74
2023/02/14 06:35:04;;;;;;;18.75;8.55;;;3.10;99.90;;;;;;4966262;28;20503;-71
2023/02/14 06:37:30;;;;;;;18.35;9.00;;;3.00;99.90;;;;;;4987118;28;20081;-73
2023/02/14 06:39:55;;;;;;;18.58;9.70;;;3.00;99.90;;;;;;4985700;28;20041;-71
2023/02/14 06:42:21;;;;;;;22.25;9.70;;;3.00;99.90;;;;;;4989734;28;20089;-70
2023/02/14 06:44:46;;;;;;;22.58;9.35;;;3.00;99.90;;;;;;4992303;28;20037;-71
2023/02/14 06:47:12;;;;;;;21.08;8.90;;;3.00;99.90;;;;;;4975742;28;20030;-71
2023/02/14 06:49:38;;;;;;;23.35;9.55;;;3.00;99.90;;;;;;4992661;28;20407;-72
2023/02/14 06:52:04;;;;;;;24.00;9.55;;;3.00;99.90;;;;;;4971935;28;20050;-71
2023/02/14 06:54:30;;;;;;;25.83;10.70;;;3.00;99.90;;;;;;4990400;28;20625;-71
2023/02/14 06:56:56;;;;;;;20.30;9.48;;;3.10;99.90;;;;;;4970499;28;20041;-74
2023/02/14 06:59:21;;;;;;;23.63;10.10;;;3.10;99.90;;;;;;4971340;28;20034;-71
2023/02/14 07:01:47;;;;;;;19.23;9.82;;;3.00;99.90;;;;;;4972309;28;20566;-71
2023/02/14 07:04:13;;;;;;;22.52;9.73;;;3.00;99.90;;;;;;4992832;28;20064;-71
2023/02/14 07:06:38;;;;;;;20.05;10.02;;;3.00;99.90;;;;;;4988839;28;20034;-71
2023/02/14 07:09:05;;;;;;;20.27;9.65;;;2.90;99.90;;;;;;4988897;28;20069;-70
2023/02/14 07:11:31;;;;;;;15.05;8.05;;;2.90;99.90;;;;;;4993976;28;20440;-72
2023/02/14 07:13:56;;;;;;;23.13;8.75;;;2.90;99.90;;;;;;4995064;28;20149;-71
2023/02/14 07:16:22;;;;;;;20.92;7.60;;;2.90;99.90;;;;;;4994481;28;20045;-71
2023/02/14 07:18:48;;;;;;;19.35;9.52;;;2.90;99.90;;;;;;4988516;28;20487;-70
2023/02/14 07:21:13;;;;;;;22.08;8.85;;;2.90;99.90;;;;;;4988939;28;20041;-71
2023/02/14 07:23:39;;;;;;;20.40;10.00;;;2.90;99.90;;;;;;4977207;28;20038;-72
2023/02/14 07:26:04;;;;;;;21.63;8.90;;;2.90;99.90;;;;;;4991150;28;20116;-72
2023/02/14 07:28:30;;;;;;;21.58;9.45;;;3.00;99.90;;;;;;4991948;28;20034;-72
2023/02/14 07:30:59;;;;;;;23.75;10.23;;;3.00;99.90;;;;;;4992913;28;20132;-72
2023/02/14 07:33:25;;;;;;;19.23;9.45;;;3.10;99.90;;;;;;4971908;28;20031;-71
2023/02/14 07:35:51;;;;;;;21.88;10.10;;;3.10;99.90;;;;;;4973286;28;20048;-71
2023/02/14 07:38:17;;;;;;;21.77;9.55;;;3.10;99.90;;;;;;4991884;28;20026;-72
2023/02/14 07:40:42;;;;;;;27.20;10.48;;;3.20;99.90;;;;;;4995165;28;20066;-72
2023/02/14 07:43:08;;;;;;;24.65;11.13;;;3.30;99.90;;;;;;4990212;28;20031;-71
2023/02/14 07:45:33;;;;;;;25.00;10.43;;;3.20;99.90;;;;;;4994139;28;20050;-71
2023/02/14 07:48:00;;;;;;;21.45;9.85;;;3.30;99.90;;;;;;5002248;28;20027;-71
2023/02/14 07:50:27;;;;;;;27.90;11.13;;;3.30;99.90;;;;;;4990611;28;20034;-70
2023/02/14 07:52:53;;;;;;;22.00;10.57;;;3.40;99.90;;;;;;4991035;28;20518;-70
2023/02/14 07:55:21;;;;;;;21.27;10.40;;;3.40;99.90;;;;;;4988219;28;20030;-70
2023/02/14 07:57:48;;;;;;;22.15;9.35;;;3.40;99.90;;;;;;4987916;28;20036;-71
2023/02/14 08:00:14;;;;;;;20.52;10.43;;;3.40;99.90;;;;;;4990289;28;20121;-71
2023/02/14 08:02:40;;;;;;;17.70;8.38;;;3.40;99.90;;;;;;4971792;28;20050;-71
2023/02/14 08:05:06;;;;;;;20.55;9.73;;;3.50;99.90;;;;;;4991089;28;20122;-73
2023/02/14 08:07:31;;;;;;;21.00;10.25;;;3.50;99.90;;;;;;4989277;28;20864;-72
2023/02/14 08:09:57;;;;;;;18.45;9.27;;;3.60;99.90;;;;;;4990790;28;20091;-70
2023/02/14 08:17:51;;;;;;;22.08;10.07;;;3.80;99.90;;;;;;4986246;28;20116;-71
2023/02/14 08:20:17;;;;;;;19.42;10.02;;;3.90;99.90;;;;;;4972262;28;20056;-71
2023/02/14 08:22:43;;;;;;;18.65;9.55;;;3.90;99.90;;;;;;4990167;28;20118;-71
2023/02/14 08:25:09;;;;;;;23.70;8.77;;;4.00;99.90;;;;;;4970650;28;20030;-71
2023/02/14 08:27:34;;;;;;;22.92;9.57;;;4.10;99.90;;;;;;4987474;28;20027;-72
2023/02/14 08:30:00;;;;;;;19.75;8.70;;;4.20;99.90;;;;;;4990111;28;20506;-72
2023/02/14 08:32:25;;;;;;;22.88;9.60;;;4.20;99.90;;;;;;4972743;28;20042;-71
2023/02/14 08:34:51;;;;;;;21.77;9.35;;;4.30;99.90;;;;;;4970014;28;20031;-71
2023/02/14 08:37:16;;;;;;;23.05;10.00;;;4.40;99.90;;;;;;4990039;28;20459;-71
2023/02/14 08:39:42;;;;;;;25.55;10.60;;;4.60;99.90;;;;;;4986513;28;20092;-71
2023/02/14 08:42:11;;;;;;;26.70;10.48;;;4.60;99.90;;;;;;4971721;28;20030;-71
2023/02/14 08:44:37;;;;;;;27.00;10.25;;;4.80;99.90;;;;;;4972556;28;20038;-71
2023/02/14 08:47:02;;;;;;;27.98;11.85;;;4.90;99.90;;;;;;4973218;28;20045;-71
2023/02/14 08:49:28;;;;;;;25.27;12.27;;;5.00;99.90;;;;;;4991903;28;20608;-73
2023/02/14 08:51:54;;;;;;;30.40;11.93;;;5.20;99.90;;;;;;4985933;28;20038;-73
2023/02/14 08:54:19;;;;;;;31.30;12.85;;;5.30;99.90;;;;;;4988224;28;20031;-71
2023/02/14 08:56:45;;;;;;;30.35;13.10;;;5.50;99.90;;;;;;4969025;28;20116;-72
2023/02/14 08:59:12;;;;;;;29.02;12.38;;;5.60;99.90;;;;;;4971510;28;20081;-70
2023/02/14 09:01:37;;;;;;;28.52;11.85;;;5.60;99.90;;;;;;4986431;28;20069;-71
2023/02/14 09:04:03;;;;;;;30.30;13.27;;;5.70;99.90;;;;;;4990672;28;21734;-73
2023/02/14 09:06:29;;;;;;;31.27;13.05;;;5.80;99.90;;;;;;4989251;28;20034;-71
2023/02/14 09:08:55;;;;;;;33.88;12.65;;;5.90;99.90;;;;;;4972894;28;20222;-71
2023/02/14 09:11:23;;;;;;;31.63;12.98;;;6.00;99.90;;;;;;5002079;28;20149;-71
2023/02/14 09:13:50;;;;;;;30.30;13.07;;;6.10;99.90;;;;;;4971338;28;20022;-72
2023/02/14 09:16:17;;;;;;;28.30;12.32;;;6.20;99.90;;;;;;4988555;28;20046;-71
2023/02/14 09:18:43;;;;;;;26.35;11.52;;;6.30;99.90;;;;;;4987715;28;20038;-71
2023/02/14 09:21:12;;;;;;;29.52;12.27;;;6.40;99.90;;;;;;4968536;28;20050;-71
2023/02/14 09:23:38;;;;;;;23.02;11.85;;;6.50;99.90;;;;;;4989879;28;20568;-71
2023/02/14 09:26:06;;;;;;;28.67;12.00;;;6.60;99.90;;;;;;4989339;28;20130;-71
2023/02/14 09:28:33;;;;;;;27.67;12.60;;;6.70;99.90;;;;;;4990462;28;20034;-71
2023/02/14 09:31:08;;;;;;;25.15;10.90;;;6.80;99.90;;;;;;4985883;28;20045;-72
2023/02/14 09:33:33;;;;;;;26.75;12.57;;;6.90;99.90;;;;;;4983978;28;20033;-70
2023/02/14 09:38:43;;;;;;;27.55;12.20;;;7.10;99.90;;;;;;4986924;28;20033;-71
2023/02/14 09:41:29;;;;;;;30.02;12.27;;;7.10;99.90;;;;;;4986655;28;20030;-71
2023/02/14 09:44:10;;;;;;;27.38;11.95;;;7.30;99.90;;;;;;4987693;28;20046;-72
2023/02/14 09:46:45;;;;;;;30.38;11.57;;;7.30;99.90;;;;;;4968517;28;20075;-71
2023/02/14 09:49:17;;;;;;;29.23;11.25;;;7.40;99.90;;;;;;4967895;28;20022;-72
2023/02/14 09:51:47;;;;;;;21.77;10.35;;;7.50;99.90;;;;;;4978987;28;20026;-71
2023/02/14 09:54:20;;;;;;;24.27;10.85;;;7.60;99.90;;;;;;4971122;28;20487;-71
2023/02/14 09:56:46;;;;;;;24.27;10.95;;;7.70;99.90;;;;;;4968848;28;20062;-71
2023/02/14 09:59:37;;;;;;;24.40;10.57;;;7.80;99.90;;;;;;4972514;28;20077;-71
2023/02/14 10:02:14;;;;;;;26.60;11.38;;;7.90;99.90;;;;;;4965269;28;20058;-71
2023/02/14 10:05:13;;;;;;;23.95;11.05;;;8.00;99.90;;;;;;4967496;28;20039;-72
2023/02/14 10:07:54;;;;;;;22.45;11.20;;;8.00;99.90;;;;;;4983332;28;20125;-71
2023/02/14 10:10:25;;;;;;;25.73;10.18;;;8.10;99.90;;;;;;4974932;28;20038;-71
2023/02/14 10:12:56;;;;;;;25.30;11.10;;;8.20;99.90;;;;;;4990221;28;20432;-70
2023/02/14 10:15:28;;;;;;;23.30;11.88;;;8.20;99.90;;;;;;4992319;28;20521;-72
2023/02/14 10:17:56;;;;;;;24.92;11.13;;;8.40;99.90;;;;;;4987803;28;20066;-70
2023/02/14 10:21:06;;;;;;;26.13;11.60;;;8.40;99.90;;;;;;4994137;28;20045;-71
2023/02/14 10:23:41;;;;;;;27.45;12.88;;;8.50;99.90;;;;;;4941409;28;20042;-74
2023/02/14 10:26:08;;;;;;;23.67;11.50;;;8.50;99.90;;;;;;4990899;28;20060;-71
2023/02/14 10:28:42;;;;;;;28.63;11.63;;;8.60;99.90;;;;;;4994551;28;20439;-70
2023/02/14 10:31:18;;;;;;;25.08;11.77;;;8.60;99.90;;;;;;4991857;28;20111;-71
2023/02/14 10:33:50;;;;;;;22.23;10.60;;;8.70;99.90;;;;;;4999117;28;20483;-71
2023/02/14 10:36:40;;;;;;;29.23;11.48;;;8.80;99.90;;;;;;4970925;28;20049;-70
2023/02/14 10:39:20;;;;;;;28.50;11.77;;;8.90;99.90;;;;;;4985915;28;20463;-69
2023/02/14 10:41:52;;;;;;;24.90;11.57;;;8.90;99.90;;;;;;4992112;28;20514;-71
2023/02/14 10:44:20;;;;;;;24.80;11.00;;;8.90;99.90;;;;;;4973147;28;20521;-71
2023/02/14 10:47:12;;;;;;;22.25;10.32;;;9.00;99.90;;;;;;4989514;28;20227;-71
2023/02/14 10:49:48;;;;;;;30.42;11.20;;;9.00;99.90;;;;;;4978028;28;20038;-71
2023/02/14 10:52:28;;;;;;;24.52;10.57;;;9.00;99.90;;;;;;4959858;28;20038;-71
2023/02/14 10:54:57;;;;;;;27.13;11.38;;;9.10;99.90;;;;;;4976430;28;20041;-73
2023/02/14 10:57:36;;;;;;;25.45;9.90;;;9.10;99.90;;;;;;4969809;28;20041;-70
2023/02/14 11:00:02;;;;;;;24.27;9.57;;;9.20;99.90;;;;;;4991300;28;20040;-71
2023/02/14 11:02:40;;;;;;;26.45;10.85;;;9.20;99.90;;;;;;4989405;28;20490;-72
2023/02/14 11:05:09;;;;;;;24.38;11.05;;;9.20;99.90;;;;;;4988567;28;20085;-71
2023/02/14 11:07:34;;;;;;;23.50;11.32;;;9.30;99.90;;;;;;4975714;28;20039;-73
2023/02/14 11:10:00;;;;;;;23.00;9.65;;;9.30;99.90;;;;;;4986055;28;20046;-72
2023/02/14 11:12:36;;;;;;;29.52;10.93;;;9.30;99.90;;;;;;4972252;28;20761;-70
2023/02/14 11:15:14;;;;;;;23.50;11.43;;;9.40;99.90;;;;;;4967084;28;20046;-71
2023/02/14 11:17:41;;;;;;;25.75;9.93;;;9.40;99.90;;;;;;4986462;28;20061;-71
2023/02/14 11:20:21;;;;;;;19.50;9.18;;;9.40;99.90;;;;;;4985224;28;20444;-71
2023/02/14 11:22:47;;;;;;;22.98;10.57;;;9.50;99.90;;;;;;4984658;28;20126;-70
2023/02/14 11:25:26;;;;;;;22.10;10.50;;;9.50;99.90;;;;;;4985023;28;20046;-71
2023/02/14 11:28:06;;;;;;;24.73;10.43;;;9.60;99.90;;;;;;4985846;28;20034;-72
2023/02/14 11:30:39;;;;;;;25.95;10.68;;;9.70;99.90;;;;;;4986152;28;20176;-72
2023/02/14 11:33:09;;;;;;;24.63;11.48;;;9.70;99.90;;;;;;4984321;28;20505;-72
2023/02/14 11:35:37;;;;;;;26.95;10.20;;;9.70;99.90;;;;;;4967617;28;20498;-73
2023/02/14 11:38:05;;;;;;;21.20;10.45;;;9.70;99.90;;;;;;4968786;28;20120;-74
2023/02/14 11:40:37;;;;;;;21.60;9.70;;;9.90;99.90;;;;;;4968862;28;20130;-72
2023/02/14 11:43:14;;;;;;;23.00;9.98;;;9.90;99.90;;;;;;4965272;28;20065;-72
2023/02/14 11:45:42;;;;;;;25.92;10.25;;;9.90;99.90;;;;;;5000327;28;20034;-74
2023/02/14 11:48:21;;;;;;;27.33;10.60;;;9.90;99.90;;;;;;4984189;28;20046;-72
2023/02/14 11:51:08;;;;;;;23.73;10.45;;;9.90;99.90;;;;;;4988279;28;20104;-71
2023/02/14 11:53:37;;;;;;;21.58;10.45;;;9.90;99.90;;;;;;4983710;28;20054;-71
2023/02/14 11:56:02;;;;;;;23.85;10.52;;;10.00;99.90;;;;;;4967564;28;20041;-72
2023/02/14 11:58:34;;;;;;;24.80;10.45;;;10.00;99.90;;;;;;4968927;28;20034;-73
2023/02/14 12:01:00;;;;;;;26.98;10.68;;;10.00;99.90;;;;;;4987842;28;20049;-74
2023/02/14 12:03:29;;;;;;;27.95;11.23;;;10.00;99.90;;;;;;4987959;28;20030;-72
2023/02/14 12:05:59;;;;;;;21.92;10.75;;;10.10;99.90;;;;;;4986917;28;20145;-71
2023/02/14 12:08:28;;;;;;;25.38;10.60;;;10.10;99.90;;;;;;4985372;28;20097;-72
2023/02/14 12:11:16;;;;;;;23.92;10.50;;;10.10;99.90;;;;;;4990542;28;20395;-71
2023/02/14 12:13:51;;;;;;;21.83;10.32;;;10.20;99.90;;;;;;4970948;28;20034;-73
2023/02/14 12:16:27;;;;;;;20.17;9.43;;;10.10;99.90;;;;;;4989686;28;20038;-72
2023/02/14 12:19:02;;;;;;;23.45;9.80;;;10.20;99.90;;;;;;4988992;28;20720;-72
2023/02/14 12:21:50;;;;;;;23.98;10.75;;;10.20;99.90;;;;;;4988676;28;20571;-73
2023/02/14 12:24:19;;;;;;;28.35;9.95;;;10.10;99.90;;;;;;4970812;28;20038;-72
2023/02/14 12:26:48;;;;;;;21.42;9.75;;;10.20;99.90;;;;;;4989661;28;20061;-72
2023/02/14 12:29:37;;;;;;;23.40;9.63;;;10.20;99.90;;;;;;4988124;28;20069;-72
2023/02/14 12:32:20;;;;;;;23.17;10.25;;;10.30;99.90;;;;;;4969268;28;20105;-75
2023/02/14 12:34:46;;;;;;;29.00;11.27;;;10.30;99.90;;;;;;4984090;28;20826;-73
2023/02/14 12:37:18;;;;;;;19.73;9.45;;;10.30;99.90;;;;;;4986757;28;20060;-71
2023/02/14 12:39:53;;;;;;;25.17;9.90;;;10.40;99.90;;;;;;4986091;28;20125;-71
2023/02/14 12:42:33;;;;;;;24.33;9.65;;;10.50;99.90;;;;;;4987444;28;20066;-71
2023/02/14 12:45:17;;;;;;;21.20;8.43;;;10.50;99.90;;;;;;5000306;28;20045;-74
2023/02/14 12:48:11;;;;;;;21.20;9.43;;;10.60;99.90;;;;;;5001094;28;20039;-72
2023/02/14 12:50:44;;;;;;;20.35;9.52;;;10.50;99.90;;;;;;4968424;28;20035;-72
2023/02/14 12:53:34;;;;;;;21.23;8.85;;;10.50;99.90;;;;;;4968614;28;20054;-70
2023/02/14 12:55:59;;;;;;;21.58;8.77;;;10.60;99.90;;;;;;4987855;28;20125;-72
2023/02/14 12:58:34;;;;;;;21.23;9.27;;;10.60;99.90;;;;;;4990812;28;20030;-72
2023/02/14 13:01:16;;;;;;;18.25;8.27;;;10.60;99.90;;;;;;4984190;28;20049;-70
2023/02/14 13:03:45;;;;;;;20.98;9.02;;;10.60;99.90;;;;;;4984859;28;20026;-72
2023/02/14 13:06:32;;;;;;;19.77;8.60;;;10.70;99.90;;;;;;4988151;28;20405;-71
2023/02/14 13:09:00;;;;;;;21.13;8.70;;;10.70;99.90;;;;;;4983987;28;20030;-72
2023/02/14 13:11:54;;;;;;;19.38;7.78;;;10.70;99.90;;;;;;4969884;28;20050;-71
2023/02/14 13:14:49;;;;;;;19.50;8.50;;;10.80;99.90;;;;;;4968521;28;20471;-71
2023/02/14 13:17:39;;;;;;;18.05;7.93;;;10.80;99.90;;;;;;4984124;28;20072;-71
2023/02/14 13:20:32;;;;;;;18.67;8.23;;;10.90;99.90;;;;;;4985341;28;20078;-72
2023/02/14 13:23:03;;;;;;;23.92;9.60;;;11.00;99.90;;;;;;4982538;28;20034;-70
2023/02/14 13:25:35;;;;;;;19.98;8.95;;;11.00;99.90;;;;;;4987753;28;20768;-72
2023/02/14 13:28:10;;;;;;;24.52;9.30;;;11.00;99.90;;;;;;4983696;28;20057;-72